createdAt,value
2019-04-01T00:01:52.025Z,89.00
2019-04-01T00:04:21.045Z,89.40
2019-04-01T00:06:50.105Z,89.50
2019-04-01T00:09:19.451Z,87.90
2019-04-01T00:11:48.481Z,88.60
2019-04-01T00:14:17.585Z,88.10
2019-04-01T00:16:46.654Z,88.70
2019-04-01T00:19:15.702Z,89.20
2019-04-01T00:21:46.089Z,89.10
2019-04-01T00:24:15.144Z,89.30
2019-04-01T00:26:44.205Z,89.30
2019-04-01T00:29:13.292Z,90.30
2019-04-01T00:31:42.333Z,91.20
2019-04-01T00:34:11.392Z,90.80
2019-04-01T00:36:40.476Z,90.90
2019-04-01T00:39:09.532Z,90.90
2019-04-01T00:41:49.305Z,91.00
2019-04-01T00:44:18.367Z,91.10
2019-04-01T00:46:47.456Z,92.00
2019-04-01T00:49:16.492Z,92.50
2019-04-01T00:51:45.561Z,92.70
2019-04-01T00:54:14.625Z,93.00
2019-04-01T00:56:43.676Z,93.40
2019-04-01T00:59:12.769Z,93.30
2019-04-01T01:01:41.817Z,93.40
2019-04-01T01:04:10.873Z,93.60
2019-04-01T01:06:39.918Z,93.70
2019-04-01T01:09:08.977Z,93.90
2019-04-01T01:11:38.049Z,94.10
2019-04-01T01:14:07.119Z,94.40
2019-04-01T01:16:36.206Z,95.30
2019-04-01T01:19:05.263Z,94.90
2019-04-01T01:21:35.341Z,94.90
2019-04-01T01:24:04.450Z,95.00
2019-04-01T01:26:33.536Z,95.40
2019-04-01T01:29:02.597Z,95.80
2019-04-01T01:31:31.743Z,96.00
2019-04-01T01:34:00.794Z,96.10
2019-04-01T01:36:29.926Z,96.10
2019-04-01T01:38:58.981Z,96.40
2019-04-01T01:41:28.325Z,97.40
2019-04-01T01:43:57.488Z,97.30
2019-04-01T01:46:26.557Z,97.40
2019-04-01T01:48:55.795Z,97.40
2019-04-01T01:51:24.913Z,97.50
2019-04-01T01:53:54.011Z,97.50
2019-04-01T01:56:23.145Z,97.60
2019-04-01T01:58:52.227Z,97.60
2019-04-01T02:01:21.386Z,97.60
2019-04-01T02:03:50.467Z,97.70
2019-04-01T02:06:19.547Z,97.90
2019-04-01T02:08:48.934Z,98.10
2019-04-01T02:11:18.030Z,98.20
2019-04-01T02:13:47.190Z,98.10
2019-04-01T02:16:16.289Z,98.10
2019-04-01T02:18:45.378Z,98.00
2019-04-01T02:21:14.470Z,97.90
2019-04-01T02:23:44.892Z,97.80
2019-04-01T02:26:13.954Z,97.80
2019-04-01T02:28:43.004Z,97.60
2019-04-01T02:31:12.133Z,97.90
2019-04-01T02:33:41.185Z,98.60
2019-04-01T02:36:10.274Z,99.20
2019-04-01T02:38:39.442Z,99.60
2019-04-01T02:41:08.830Z,99.70
2019-04-01T02:43:37.967Z,99.80
2019-04-01T02:46:07.074Z,99.90
2019-04-01T02:48:36.181Z,99.90
2019-04-01T02:51:05.241Z,99.90
2019-04-01T02:53:34.330Z,99.90
2019-04-01T02:56:03.794Z,99.90
2019-04-01T02:58:32.854Z,99.90
2019-04-01T03:01:01.990Z,99.90
2019-04-01T03:03:31.083Z,99.90
2019-04-01T03:06:00.189Z,99.90
2019-04-01T03:08:29.249Z,99.90
2019-04-01T03:10:58.322Z,99.90
2019-04-01T03:13:27.439Z,99.90
2019-04-01T03:15:56.559Z,99.90
2019-04-01T03:18:25.635Z,99.90
2019-04-01T03:20:54.770Z,99.90
2019-04-01T03:23:23.837Z,99.90
2019-04-01T03:25:52.906Z,99.90
2019-04-01T03:28:21.988Z,99.90
2019-04-01T03:30:51.094Z,99.90
2019-04-01T03:33:20.215Z,99.90
2019-04-01T03:35:49.324Z,99.90
2019-04-01T03:38:18.405Z,99.90
2019-04-01T03:40:47.485Z,99.90
2019-04-01T03:43:16.725Z,99.90
2019-04-01T03:45:46.365Z,99.90
2019-04-01T03:48:15.451Z,99.90
2019-04-01T03:50:44.577Z,99.90
2019-04-01T03:53:13.674Z,99.90
2019-04-01T03:55:42.811Z,99.90
2019-04-01T03:58:11.919Z,99.90
2019-04-01T04:00:41.104Z,99.90
2019-04-01T04:03:10.183Z,99.90
2019-04-01T04:05:39.237Z,99.90
2019-04-01T04:08:08.367Z,99.90
2019-04-01T04:10:37.478Z,99.90
2019-04-01T04:13:06.588Z,99.90
2019-04-01T04:15:35.729Z,99.90
2019-04-01T04:18:04.843Z,99.90
2019-04-01T04:20:33.942Z,99.90
2019-04-01T04:23:03.020Z,99.90
2019-04-01T04:25:32.167Z,99.90
2019-04-01T04:28:01.258Z,99.90
2019-04-01T04:30:30.342Z,99.90
2019-04-01T04:32:59.438Z,99.90
2019-04-01T04:35:28.507Z,99.90
2019-04-01T04:37:57.668Z,99.90
2019-04-01T04:40:26.801Z,99.90
2019-04-01T04:42:55.979Z,99.90
2019-04-01T04:45:25.025Z,99.90
2019-04-01T04:47:54.238Z,99.90
2019-04-01T04:50:23.367Z,99.90
2019-04-01T04:52:52.468Z,99.90
2019-04-01T04:55:21.547Z,99.90
2019-04-01T04:57:50.656Z,99.90
2019-04-01T05:00:19.750Z,99.90
2019-04-01T05:02:48.832Z,99.90
2019-04-01T05:05:17.951Z,99.90
2019-04-01T05:07:47.114Z,99.90
2019-04-01T05:10:16.326Z,99.90
2019-04-01T05:12:45.511Z,99.90
2019-04-01T05:15:14.606Z,99.90
2019-04-01T05:17:43.709Z,99.90
2019-04-01T05:20:16.287Z,99.90
2019-04-01T05:22:45.310Z,99.90
2019-04-01T05:25:14.394Z,99.90
2019-04-01T05:27:43.662Z,99.90
2019-04-01T05:30:13.081Z,99.90
2019-04-01T05:32:42.994Z,99.90
2019-04-01T05:35:12.118Z,99.90
2019-04-01T05:37:41.327Z,99.90
2019-04-01T05:40:10.826Z,99.90
2019-04-01T05:42:39.916Z,99.90
2019-04-01T05:45:09.531Z,99.90
2019-04-01T05:47:44.639Z,99.90
2019-04-01T05:50:13.871Z,99.90
2019-04-01T05:52:42.943Z,99.90
2019-04-01T05:55:12.058Z,99.90
2019-04-01T05:57:41.196Z,99.90
2019-04-01T06:00:13.715Z,99.90
2019-04-01T06:02:42.982Z,99.90
2019-04-01T06:05:12.155Z,99.90
2019-04-01T06:07:43.076Z,99.90
2019-04-01T06:10:12.172Z,99.90
2019-04-01T06:12:41.313Z,99.90
2019-04-01T06:15:10.472Z,99.90
2019-04-01T06:17:39.595Z,99.90
2019-04-01T06:20:08.715Z,99.90
2019-04-01T06:22:37.862Z,99.90
2019-04-01T06:25:07.318Z,99.90
2019-04-01T06:27:36.408Z,99.90
2019-04-01T06:30:05.925Z,99.90
2019-04-01T06:32:35.081Z,99.90
2019-04-01T06:35:05.122Z,99.90
2019-04-01T06:37:34.225Z,99.90
2019-04-01T06:40:03.421Z,99.90
2019-04-01T06:42:33.910Z,99.90
2019-04-01T06:45:03.000Z,99.90
2019-04-01T06:47:32.063Z,99.60
2019-04-01T06:50:01.267Z,99.90
2019-04-01T06:52:30.331Z,99.20
2019-04-01T06:54:59.438Z,99.30
2019-04-01T06:57:28.670Z,98.90
2019-04-01T06:59:58.166Z,99.00
2019-04-01T07:02:27.245Z,98.60
2019-04-01T07:04:56.618Z,98.00
2019-04-01T07:07:25.947Z,97.60
2019-04-01T07:09:55.021Z,97.60
2019-04-01T07:12:24.086Z,97.60
2019-04-01T07:14:53.492Z,97.60
2019-04-01T07:17:22.628Z,97.70
2019-04-01T07:19:51.791Z,97.70
2019-04-01T07:22:21.163Z,97.50
2019-04-01T07:24:50.262Z,97.30
2019-04-01T07:27:19.414Z,96.70
2019-04-01T07:29:48.523Z,96.40
2019-04-01T07:32:17.651Z,96.70
2019-04-01T07:34:46.729Z,95.80
2019-04-01T07:37:15.835Z,96.00
2019-04-01T07:39:44.936Z,95.40
2019-04-01T07:42:14.050Z,95.60
2019-04-01T07:44:44.047Z,95.30
2019-04-01T07:47:13.270Z,95.30
2019-04-01T07:49:42.342Z,95.30
2019-04-01T07:52:11.842Z,94.80
2019-04-01T07:54:41.312Z,95.10
2019-04-01T07:57:10.384Z,94.80
2019-04-01T07:59:39.507Z,95.10
2019-04-01T08:02:08.850Z,94.70
2019-04-01T08:04:37.968Z,94.50
2019-04-01T08:07:07.043Z,94.80
2019-04-01T08:09:36.306Z,95.10
2019-04-01T08:12:05.427Z,95.30
2019-04-01T08:14:34.531Z,94.90
2019-04-01T08:17:03.746Z,94.60
2019-04-01T08:19:34.743Z,93.90
2019-04-01T08:22:03.816Z,93.70
2019-04-01T08:24:32.927Z,93.60
2019-04-01T08:27:02.055Z,93.10
2019-04-01T08:29:31.122Z,93.10
2019-04-01T08:32:00.463Z,91.70
2019-04-01T08:34:29.532Z,91.80
2019-04-01T08:36:59.119Z,92.50
2019-04-01T08:39:28.215Z,91.70
2019-04-01T08:41:57.373Z,91.50
2019-04-01T08:44:26.470Z,91.80
2019-04-01T08:46:55.843Z,91.80
2019-04-01T08:49:25.141Z,91.40
2019-04-01T08:51:54.663Z,90.20
2019-04-01T08:54:23.767Z,90.10
2019-04-01T08:56:52.842Z,90.30
2019-04-01T08:59:21.969Z,89.30
2019-04-01T09:01:51.134Z,89.40
2019-04-01T09:04:20.699Z,89.60
2019-04-01T09:06:49.855Z,89.10
2019-04-01T09:09:19.048Z,88.00
2019-04-01T09:11:48.371Z,88.10
2019-04-01T09:14:18.081Z,87.90
2019-04-01T09:16:48.697Z,88.30
2019-04-01T09:19:17.806Z,87.60
2019-04-01T09:21:46.899Z,87.40
2019-04-01T09:24:16.004Z,86.90
2019-04-01T09:26:45.132Z,86.90
2019-04-01T09:29:14.237Z,84.80
2019-04-01T09:31:43.323Z,85.20
2019-04-01T09:34:12.467Z,86.00
2019-04-01T09:36:41.564Z,86.80
2019-04-01T09:39:10.675Z,86.20
2019-04-01T09:41:39.787Z,84.80
2019-04-01T09:44:08.863Z,85.10
2019-04-01T09:46:37.938Z,83.40
2019-04-01T09:49:07.443Z,84.20
2019-04-01T09:51:47.788Z,83.90
2019-04-01T09:54:07.333Z,83.50
2019-04-01T09:56:36.413Z,83.30
2019-04-01T09:59:05.483Z,83.50
2019-04-01T10:01:34.565Z,82.30
2019-04-01T10:04:03.636Z,79.70
2019-04-01T10:06:32.741Z,79.20
2019-04-01T10:09:02.658Z,80.30
2019-04-01T10:11:31.747Z,81.30
2019-04-01T10:14:00.824Z,81.00
2019-04-01T10:16:31.506Z,81.10
2019-04-01T10:19:00.587Z,82.50
2019-04-01T10:21:29.649Z,81.70
2019-04-01T10:23:58.849Z,82.60
2019-04-01T10:26:28.127Z,80.30
2019-04-01T10:28:57.209Z,80.20
2019-04-01T10:31:26.266Z,80.00
2019-04-01T10:33:55.387Z,79.00
2019-04-01T10:36:24.444Z,79.30
2019-04-01T10:38:53.534Z,79.50
2019-04-01T10:41:22.671Z,78.20
2019-04-01T10:43:51.780Z,77.10
2019-04-01T10:46:20.888Z,76.50
2019-04-01T10:48:50.340Z,77.40
2019-04-01T10:51:19.551Z,78.50
2019-04-01T10:53:48.796Z,77.60
2019-04-01T10:56:18.085Z,76.50
2019-04-01T10:58:47.542Z,74.30
2019-04-01T11:01:16.756Z,76.00
2019-04-01T11:03:45.866Z,76.50
2019-04-01T11:06:14.959Z,77.00
2019-04-01T11:08:44.209Z,76.80
2019-04-01T11:11:13.355Z,76.70
2019-04-01T11:13:42.435Z,74.80
2019-04-01T11:16:11.621Z,75.00
2019-04-01T11:18:40.919Z,73.70
2019-04-01T11:21:10.380Z,74.00
2019-04-01T11:23:39.471Z,75.10
2019-04-01T11:26:08.562Z,76.70
2019-04-01T11:28:37.701Z,77.10
2019-04-01T11:31:06.852Z,76.90
2019-04-01T11:33:37.425Z,75.40
2019-04-01T11:36:06.882Z,75.00
2019-04-01T11:38:36.340Z,74.40
2019-04-01T11:41:05.516Z,75.10
2019-04-01T11:43:35.772Z,76.10
2019-04-01T11:46:05.182Z,76.90
2019-04-01T11:48:34.243Z,76.70
2019-04-01T11:51:03.385Z,77.40
2019-04-01T11:53:32.486Z,77.00
2019-04-01T11:56:01.619Z,76.40
2019-04-01T11:58:30.742Z,72.50
2019-04-01T12:00:59.866Z,71.40
2019-04-01T12:03:30.775Z,70.10
2019-04-01T12:05:59.870Z,67.00
2019-04-01T12:08:30.527Z,68.40
2019-04-01T12:10:59.656Z,69.30
2019-04-01T12:13:29.010Z,69.90
2019-04-01T12:15:58.616Z,69.70
2019-04-01T12:18:27.684Z,68.60
2019-04-01T12:20:56.788Z,67.70
2019-04-01T12:23:26.239Z,68.00
2019-04-01T12:25:55.373Z,67.90
2019-04-01T12:28:24.598Z,69.30
2019-04-01T12:30:53.692Z,67.60
2019-04-01T12:33:25.960Z,67.90
2019-04-01T12:35:53.602Z,68.30
2019-04-01T12:38:22.706Z,69.30
2019-04-01T12:40:51.803Z,69.90
2019-04-01T12:43:23.486Z,69.80
2019-04-01T12:45:51.705Z,69.00
2019-04-01T12:48:20.870Z,70.10
2019-04-01T12:50:49.961Z,70.40
2019-04-01T12:53:19.039Z,70.40
2019-04-01T12:55:48.211Z,70.80
2019-04-01T12:58:17.896Z,70.00
2019-04-01T13:00:46.998Z,70.00
2019-04-01T13:03:16.118Z,69.80
2019-04-01T13:05:45.202Z,71.10
2019-04-01T13:08:14.342Z,72.30
2019-04-01T13:10:43.522Z,73.50
2019-04-01T13:13:13.062Z,73.00
2019-04-01T13:15:42.326Z,72.70
2019-04-01T13:18:11.423Z,72.90
2019-04-01T13:20:41.996Z,73.00
2019-04-01T13:23:11.191Z,72.20
2019-04-01T13:25:40.637Z,73.50
2019-04-01T13:28:09.696Z,71.80
2019-04-01T13:30:38.822Z,70.60
2019-04-01T13:33:07.934Z,71.70
2019-04-01T13:35:39.678Z,71.30
2019-04-01T13:38:10.750Z,72.20
2019-04-01T13:40:38.732Z,71.80
2019-04-01T13:43:07.841Z,71.90
2019-04-01T13:45:36.945Z,70.00
2019-04-01T13:48:06.015Z,69.70
2019-04-01T13:50:35.131Z,70.60
2019-04-01T13:53:04.214Z,69.40
2019-04-01T13:55:33.334Z,69.70
2019-04-01T13:58:02.426Z,70.30
2019-04-01T14:00:31.571Z,71.50
2019-04-01T14:03:00.799Z,71.90
2019-04-01T14:05:31.494Z,70.80
2019-04-01T14:08:00.572Z,69.30
2019-04-01T14:10:29.658Z,69.40
2019-04-01T14:12:58.757Z,68.30
2019-04-01T14:15:27.868Z,69.10
2019-04-01T14:17:56.959Z,68.50
2019-04-01T14:20:26.060Z,67.90
2019-04-01T14:22:55.208Z,67.00
2019-04-01T14:25:24.286Z,67.50
2019-04-01T14:27:53.354Z,66.70
2019-04-01T14:30:22.525Z,66.20
2019-04-01T14:32:51.689Z,67.00
2019-04-01T14:35:23.672Z,67.00
2019-04-01T14:37:51.622Z,65.00
2019-04-01T14:40:20.804Z,64.90
2019-04-01T14:42:49.902Z,65.30
2019-04-01T14:45:18.998Z,65.60
2019-04-01T14:47:57.163Z,64.30
2019-04-01T14:50:18.866Z,64.10
2019-04-01T14:52:47.960Z,64.90
2019-04-01T14:55:17.039Z,64.90
2019-04-01T14:57:46.235Z,64.90
2019-04-01T15:00:15.935Z,64.90
2019-04-01T15:02:45.057Z,64.10
2019-04-01T15:05:14.337Z,64.10
2019-04-01T15:07:43.510Z,63.80
2019-04-01T15:10:12.993Z,63.90
2019-04-01T15:12:42.106Z,64.90
2019-04-01T15:15:11.714Z,65.60
2019-04-01T15:17:40.779Z,65.30
2019-04-01T15:20:10.162Z,64.70
2019-04-01T15:22:39.367Z,64.80
2019-04-01T15:25:08.642Z,65.30
2019-04-01T15:27:37.694Z,65.50
2019-04-01T15:30:07.574Z,65.40
2019-04-01T15:32:36.626Z,64.50
2019-04-01T15:35:06.395Z,64.90
2019-04-01T15:37:35.616Z,65.80
2019-04-01T15:40:05.403Z,65.80
2019-04-01T15:42:34.575Z,65.80
2019-04-01T15:45:03.760Z,65.60
2019-04-01T15:47:32.854Z,66.10
2019-04-01T15:50:01.922Z,66.00
2019-04-01T15:52:31.384Z,66.10
2019-04-01T15:55:00.515Z,65.90
2019-04-01T15:57:30.853Z,65.80
2019-04-01T16:00:00.048Z,66.00
2019-04-01T16:02:29.129Z,66.30
2019-04-01T16:04:58.252Z,66.60
2019-04-01T16:07:28.130Z,66.60
2019-04-01T16:09:57.999Z,67.30
2019-04-01T16:12:27.097Z,67.30
2019-04-01T16:14:56.223Z,66.30
2019-04-01T16:17:25.338Z,65.80
2019-04-01T16:19:54.469Z,65.70
2019-04-01T16:22:23.652Z,65.10
2019-04-01T16:24:52.812Z,65.20
2019-04-01T16:27:21.877Z,64.60
2019-04-01T16:29:51.103Z,64.40
2019-04-01T16:32:20.209Z,64.40
2019-04-01T16:34:49.654Z,64.20
2019-04-01T16:37:18.718Z,64.80
2019-04-01T16:39:48.704Z,64.20
2019-04-01T16:42:18.588Z,64.10
2019-04-01T16:44:48.512Z,63.40
2019-04-01T16:47:17.595Z,63.50
2019-04-01T16:49:46.722Z,63.30
2019-04-01T16:52:15.794Z,63.30
2019-04-01T16:54:56.887Z,63.40
2019-04-01T16:57:26.279Z,63.70
2019-04-01T16:59:56.274Z,64.20
2019-04-01T17:02:26.346Z,63.90
2019-04-01T17:04:55.794Z,63.70
2019-04-01T17:07:24.899Z,63.40
2019-04-01T17:09:53.994Z,63.60
2019-04-01T17:12:23.227Z,62.80
2019-04-01T17:14:52.997Z,63.00
2019-04-01T17:17:22.490Z,63.10
2019-04-01T17:19:51.583Z,63.50
2019-04-01T17:22:20.674Z,63.50
2019-04-01T17:24:49.770Z,63.70
2019-04-01T17:27:18.846Z,64.10
2019-04-01T17:29:48.331Z,64.50
2019-04-01T17:32:17.444Z,64.70
2019-04-01T17:34:46.499Z,64.60
2019-04-01T17:37:15.601Z,64.70
2019-04-01T17:39:44.669Z,65.00
2019-04-01T17:42:13.745Z,64.90
2019-04-01T17:44:42.838Z,65.10
2019-04-01T17:47:11.889Z,64.60
2019-04-01T17:49:41.082Z,65.60
2019-04-01T17:52:10.507Z,65.10
2019-04-01T17:54:40.080Z,65.30
2019-04-01T17:57:09.350Z,65.20
2019-04-01T17:59:38.556Z,65.20
2019-04-01T18:02:12.542Z,65.50
2019-04-01T18:04:41.641Z,65.80
2019-04-01T18:07:10.816Z,65.40
2019-04-01T18:09:39.929Z,65.50
2019-04-01T18:12:08.979Z,65.40
2019-04-01T18:14:38.097Z,65.90
2019-04-01T18:17:07.184Z,65.90
2019-04-01T18:19:36.870Z,65.90
2019-04-01T18:22:05.947Z,65.90
2019-04-01T18:24:35.035Z,65.50
2019-04-01T18:27:04.195Z,66.20
2019-04-01T18:29:33.258Z,66.10
2019-04-01T18:32:02.690Z,66.30
2019-04-01T18:34:31.874Z,66.00
2019-04-01T18:37:00.995Z,66.20
2019-04-01T18:39:30.248Z,66.60
2019-04-01T18:41:59.347Z,66.70
2019-04-01T18:44:28.402Z,66.50
2019-04-01T18:46:57.833Z,66.50
2019-04-01T18:49:27.469Z,66.60
2019-04-01T18:51:57.116Z,66.90
2019-04-01T18:54:26.992Z,67.00
2019-04-01T18:56:58.133Z,66.70
2019-04-01T18:59:28.126Z,66.70
2019-04-01T19:02:00.250Z,66.60
2019-04-01T19:04:29.519Z,66.90
2019-04-01T19:06:58.653Z,66.60
2019-04-01T19:09:27.870Z,66.60
2019-04-01T19:12:03.712Z,67.10
2019-04-01T19:14:27.871Z,67.00
2019-04-01T19:16:57.021Z,66.70
2019-04-01T19:19:26.085Z,66.90
2019-04-01T19:21:55.251Z,66.90
2019-04-01T19:24:24.403Z,66.80
2019-04-01T19:26:53.450Z,66.70
2019-04-01T19:29:22.548Z,66.60
2019-04-01T19:31:51.650Z,66.70
2019-04-01T19:34:20.787Z,66.90
2019-04-01T19:36:49.966Z,67.00
2019-04-01T19:39:19.045Z,67.30
2019-04-01T19:41:49.950Z,67.20
2019-04-01T19:44:19.098Z,67.40
2019-04-01T19:46:48.242Z,67.50
2019-04-01T19:49:17.305Z,67.50
2019-04-01T19:51:46.387Z,67.70
2019-04-01T19:54:15.475Z,67.40
2019-04-01T19:56:44.562Z,67.90
2019-04-01T19:59:14.880Z,67.60
2019-04-01T20:01:43.979Z,67.70
2019-04-01T20:04:13.081Z,68.00
2019-04-01T20:06:42.315Z,68.00
2019-04-01T20:09:11.482Z,68.30
2019-04-01T20:11:40.570Z,68.30
2019-04-01T20:14:11.135Z,68.50
2019-04-01T20:16:41.138Z,68.70
2019-04-01T20:19:10.723Z,69.00
2019-04-01T20:21:40.071Z,68.90
2019-04-01T20:24:09.234Z,69.10
2019-04-01T20:26:38.386Z,69.00
2019-04-01T20:29:07.527Z,69.20
2019-04-01T20:31:37.216Z,69.30
2019-04-01T20:34:19.069Z,69.40
2019-04-01T20:36:41.218Z,69.70
2019-04-01T20:39:10.378Z,69.80
2019-04-01T20:41:39.507Z,69.90
2019-04-01T20:44:08.582Z,70.00
2019-04-01T20:46:39.103Z,70.10
2019-04-01T20:49:08.330Z,70.50
2019-04-01T20:51:37.418Z,70.70
2019-04-01T20:54:06.497Z,70.60
2019-04-01T20:56:35.614Z,70.90
2019-04-01T20:59:04.754Z,71.20
2019-04-01T21:01:35.181Z,71.40
2019-04-01T21:04:04.486Z,71.70
2019-04-01T21:06:33.629Z,71.50
2019-04-01T21:09:03.097Z,72.00
2019-04-01T21:11:32.182Z,72.50
2019-04-01T21:14:01.352Z,72.70
2019-04-01T21:16:31.650Z,73.20
2019-04-01T21:19:00.810Z,73.30
2019-04-01T21:21:29.951Z,73.30
2019-04-01T21:23:59.926Z,73.60
2019-04-01T21:26:29.439Z,73.90
2019-04-01T21:28:58.805Z,73.90
2019-04-01T21:31:27.868Z,74.20
2019-04-01T21:33:56.970Z,74.60
2019-04-01T21:36:26.078Z,74.70
2019-04-01T21:38:55.492Z,74.80
2019-04-01T21:41:25.442Z,74.80
2019-04-01T21:43:55.063Z,75.00
2019-04-01T21:46:24.686Z,75.00
2019-04-01T21:48:53.757Z,75.50
2019-04-01T21:51:22.826Z,75.10
2019-04-01T21:53:51.894Z,75.30
2019-04-01T21:56:20.977Z,75.30
2019-04-01T21:58:50.094Z,75.40
2019-04-01T22:01:19.218Z,75.40
2019-04-01T22:03:48.278Z,75.50
2019-04-01T22:06:17.418Z,75.50
2019-04-01T22:08:46.491Z,75.30
2019-04-01T22:11:15.614Z,75.20
2019-04-01T22:13:44.682Z,74.80
2019-04-01T22:16:13.782Z,74.90
2019-04-01T22:18:43.087Z,74.60
2019-04-01T22:21:12.607Z,74.50
2019-04-01T22:23:41.679Z,74.40
2019-04-01T22:26:10.759Z,74.60
2019-04-01T22:28:40.162Z,74.70
2019-04-01T22:31:09.233Z,74.60
2019-04-01T22:33:39.206Z,74.60
2019-04-01T22:36:09.279Z,74.10
2019-04-01T22:38:38.336Z,74.80
2019-04-01T22:41:07.383Z,74.60
2019-04-01T22:43:36.496Z,74.80
2019-04-01T22:46:05.580Z,74.30
2019-04-01T22:48:34.633Z,74.00
2019-04-01T22:51:03.723Z,74.50
2019-04-01T22:53:33.343Z,74.50
2019-04-01T22:56:02.705Z,74.50
2019-04-01T22:58:31.798Z,74.30
2019-04-01T23:01:01.052Z,75.00
2019-04-01T23:03:30.102Z,73.60
2019-04-01T23:05:59.235Z,73.80
2019-04-01T23:08:28.373Z,73.90
2019-04-01T23:10:57.451Z,73.40
2019-04-01T23:13:26.525Z,74.10
2019-04-01T23:15:55.600Z,74.00
2019-04-01T23:18:24.756Z,74.50
2019-04-01T23:20:53.919Z,74.30
2019-04-01T23:23:23.002Z,74.30
2019-04-01T23:25:52.166Z,74.60
2019-04-01T23:28:21.253Z,74.10
2019-04-01T23:30:50.681Z,74.00
2019-04-01T23:33:19.806Z,74.40
2019-04-01T23:35:49.099Z,74.50
2019-04-01T23:38:18.147Z,74.10
2019-04-01T23:40:47.206Z,74.30
2019-04-01T23:43:16.619Z,74.10
2019-04-01T23:45:45.739Z,73.90
2019-04-01T23:48:14.814Z,73.40
2019-04-01T23:50:43.887Z,73.80
2019-04-01T23:53:13.022Z,74.10
2019-04-01T23:55:42.134Z,74.10
2019-04-01T23:58:11.200Z,74.00
